createdAt,value
2019-02-16T00:00:21.346Z,77.63
2019-02-16T00:02:54.380Z,77.80
2019-02-16T00:05:26.804Z,77.21
2019-02-16T00:07:58.159Z,77.50
2019-02-16T00:10:30.743Z,77.69
2019-02-16T00:13:02.134Z,77.26
2019-02-16T00:15:34.728Z,77.10
2019-02-16T00:18:06.241Z,77.53
2019-02-16T00:20:37.691Z,77.66
2019-02-16T00:23:09.175Z,76.91
2019-02-16T00:25:40.543Z,76.85
2019-02-16T00:28:11.996Z,76.54
2019-02-16T00:30:43.460Z,76.66
2019-02-16T00:33:14.887Z,76.83
2019-02-16T00:35:46.373Z,77.31
2019-02-16T00:38:17.805Z,77.11
2019-02-16T00:40:49.277Z,77.06
2019-02-16T00:43:20.716Z,77.42
2019-02-16T00:45:52.156Z,77.68
2019-02-16T00:48:23.609Z,79.65
2019-02-16T00:50:55.073Z,78.05
2019-02-16T00:53:28.213Z,79.08
2019-02-16T00:55:59.698Z,79.00
2019-02-16T00:58:31.035Z,77.78
2019-02-16T01:01:02.506Z,77.59
2019-02-16T01:03:33.905Z,77.46
2019-02-16T01:06:06.375Z,77.90
2019-02-16T01:08:37.837Z,77.16
2019-02-16T01:11:09.807Z,77.41
2019-02-16T01:13:41.289Z,77.59
2019-02-16T01:16:13.820Z,77.38
2019-02-16T01:18:45.204Z,78.17
2019-02-16T01:21:22.584Z,78.38
2019-02-16T01:23:49.791Z,78.06
2019-02-16T01:26:21.288Z,77.62
2019-02-16T01:28:52.913Z,77.78
2019-02-16T01:31:24.371Z,79.39
2019-02-16T01:33:58.150Z,78.69
2019-02-16T01:36:29.690Z,79.08
2019-02-16T01:39:01.134Z,78.50
2019-02-16T01:41:34.185Z,77.83
2019-02-16T01:44:06.348Z,77.90
2019-02-16T01:46:37.818Z,77.69
2019-02-16T01:49:09.237Z,79.60
2019-02-16T01:51:40.690Z,79.85
2019-02-16T01:54:12.148Z,81.17
2019-02-16T01:56:43.686Z,79.24
2019-02-16T01:59:15.130Z,79.65
2019-02-16T02:01:46.598Z,79.49
2019-02-16T02:04:18.043Z,81.05
2019-02-16T02:06:49.524Z,81.63
2019-02-16T02:09:20.971Z,80.77
2019-02-16T02:11:52.452Z,80.82
2019-02-16T02:14:23.906Z,79.67
2019-02-16T02:16:55.370Z,79.04
2019-02-16T02:19:26.805Z,78.09
2019-02-16T02:21:58.261Z,78.04
2019-02-16T02:24:29.696Z,78.53
2019-02-16T02:27:01.159Z,78.05
2019-02-16T02:29:32.577Z,79.61
2019-02-16T02:32:04.075Z,80.87
2019-02-16T02:34:35.555Z,79.14
2019-02-16T02:37:07.018Z,78.59
2019-02-16T02:39:38.435Z,79.14
2019-02-16T02:42:09.882Z,78.71
2019-02-16T02:44:41.319Z,78.72
2019-02-16T02:47:12.763Z,79.12
2019-02-16T02:49:44.213Z,79.10
2019-02-16T02:52:15.682Z,79.18
2019-02-16T02:54:47.098Z,79.40
2019-02-16T02:57:18.544Z,78.52
2019-02-16T02:59:52.758Z,78.86
2019-02-16T03:02:24.198Z,79.08
2019-02-16T03:04:55.556Z,81.31
2019-02-16T03:07:27.098Z,81.42
2019-02-16T03:09:58.492Z,80.67
2019-02-16T03:12:29.960Z,79.30
2019-02-16T03:15:01.344Z,79.14
2019-02-16T03:17:32.984Z,79.11
2019-02-16T03:20:04.856Z,79.88
2019-02-16T03:23:14.294Z,79.92
2019-02-16T03:26:40.910Z,81.27
2019-02-16T03:29:41.457Z,79.92
2019-02-16T03:33:09.813Z,79.27
2019-02-16T03:36:33.715Z,79.66
2019-02-16T03:39:19.474Z,80.12
2019-02-16T03:41:50.843Z,80.63
2019-02-16T03:44:22.291Z,80.75
2019-02-16T03:46:53.726Z,81.39
2019-02-16T03:49:25.095Z,82.67
2019-02-16T03:51:56.512Z,82.69
2019-02-16T03:54:27.902Z,81.31
2019-02-16T03:56:59.362Z,80.61
2019-02-16T03:59:33.146Z,80.93
2019-02-16T04:02:06.626Z,80.66
2019-02-16T04:04:37.758Z,81.47
2019-02-16T04:07:09.128Z,80.72
2019-02-16T04:09:40.616Z,80.09
2019-02-16T04:12:12.028Z,80.23
2019-02-16T04:14:43.519Z,80.58
2019-02-16T04:17:14.956Z,80.65
2019-02-16T04:19:46.601Z,82.07
2019-02-16T04:22:24.603Z,81.29
2019-02-16T04:24:51.122Z,81.76
2019-02-16T04:27:22.558Z,81.13
2019-02-16T04:29:54.033Z,80.67
2019-02-16T04:32:25.396Z,80.98
2019-02-16T04:34:56.854Z,81.64
2019-02-16T04:37:28.328Z,82.32
2019-02-16T04:40:01.287Z,82.43
2019-02-16T04:42:32.688Z,83.12
2019-02-16T04:45:04.376Z,82.80
2019-02-16T04:47:35.801Z,81.57
2019-02-16T04:50:07.301Z,82.14
2019-02-16T04:52:38.746Z,81.14
2019-02-16T04:55:13.493Z,81.43
2019-02-16T04:57:44.949Z,82.29
2019-02-16T05:00:16.715Z,81.81
2019-02-16T05:02:48.331Z,82.58
2019-02-16T05:05:19.824Z,82.65
2019-02-16T05:07:51.284Z,81.81
2019-02-16T05:10:22.731Z,81.33
2019-02-16T05:12:54.191Z,80.91
2019-02-16T05:15:25.685Z,80.88
2019-02-16T05:17:57.150Z,80.94
2019-02-16T05:20:29.595Z,81.24
2019-02-16T05:23:00.931Z,81.53
2019-02-16T05:25:32.400Z,82.00
2019-02-16T05:28:03.772Z,81.49
2019-02-16T05:30:35.251Z,81.50
2019-02-16T05:33:06.688Z,81.99
2019-02-16T05:35:38.738Z,81.57
2019-02-16T05:38:10.177Z,81.70
2019-02-16T05:40:41.646Z,82.00
2019-02-16T05:43:14.676Z,81.78
2019-02-16T05:45:46.181Z,81.45
2019-02-16T05:48:17.607Z,81.35
2019-02-16T05:50:49.072Z,81.36
2019-02-16T05:53:20.475Z,81.13
2019-02-16T05:55:51.919Z,81.05
2019-02-16T05:58:23.359Z,81.68
2019-02-16T06:00:54.824Z,81.30
2019-02-16T06:03:26.160Z,81.32
2019-02-16T06:05:59.091Z,81.15
2019-02-16T06:08:33.400Z,81.35
2019-02-16T06:11:05.965Z,81.53
2019-02-16T06:13:39.729Z,81.68
2019-02-16T06:16:11.138Z,82.30
2019-02-16T06:18:42.608Z,81.46
2019-02-16T06:21:14.071Z,81.34
2019-02-16T06:23:45.510Z,81.25
2019-02-16T06:26:16.955Z,81.56
2019-02-16T06:28:48.401Z,81.54
2019-02-16T06:31:19.867Z,81.13
2019-02-16T06:33:51.253Z,81.31
2019-02-16T06:36:30.234Z,81.39
2019-02-16T06:39:01.679Z,81.00
2019-02-16T06:41:34.346Z,80.44
2019-02-16T06:44:05.807Z,80.61
2019-02-16T06:46:37.289Z,80.68
2019-02-16T06:49:08.647Z,80.97
2019-02-16T06:51:40.101Z,81.13
2019-02-16T06:54:11.567Z,80.70
2019-02-16T06:57:00.861Z,80.22
2019-02-16T06:59:32.294Z,80.05
2019-02-16T07:02:03.769Z,80.07
2019-02-16T07:04:39.015Z,79.97
2019-02-16T07:07:10.487Z,79.90
2019-02-16T07:09:41.935Z,79.20
2019-02-16T07:12:13.383Z,78.76
2019-02-16T07:14:44.733Z,78.64
2019-02-16T07:17:44.344Z,77.27
2019-02-16T07:20:17.829Z,76.53
2019-02-16T07:22:49.190Z,70.82
2019-02-16T07:25:20.934Z,70.41
2019-02-16T07:27:54.701Z,73.06
2019-02-16T07:30:26.096Z,67.84
2019-02-16T07:32:57.581Z,68.59
2019-02-16T07:35:29.008Z,67.11
2019-02-16T07:38:00.459Z,71.41
2019-02-16T07:40:32.963Z,72.01
2019-02-16T07:43:04.449Z,70.36
2019-02-16T07:45:59.320Z,61.35
2019-02-16T07:48:45.771Z,62.80
2019-02-16T07:51:42.201Z,66.35
2019-02-16T07:54:34.020Z,63.61
2019-02-16T07:57:27.366Z,67.97
2019-02-16T08:00:23.310Z,68.27
2019-02-16T08:03:15.194Z,63.18
2019-02-16T08:05:55.675Z,66.59
2019-02-16T08:08:46.480Z,66.69
2019-02-16T08:11:51.957Z,64.79
2019-02-16T08:14:48.559Z,63.98
2019-02-16T08:17:27.053Z,64.43
2019-02-16T08:20:23.492Z,63.01
2019-02-16T08:23:03.428Z,63.41
2019-02-16T08:25:45.003Z,61.97
2019-02-16T08:28:26.829Z,61.10
2019-02-16T08:31:26.778Z,59.06
2019-02-16T08:34:20.007Z,56.90
2019-02-16T08:37:22.674Z,57.40
2019-02-16T08:40:13.122Z,58.25
2019-02-16T08:43:04.714Z,58.12
2019-02-16T08:45:55.815Z,54.11
2019-02-16T08:48:48.256Z,54.60
2019-02-16T08:51:26.904Z,53.36
2019-02-16T08:54:15.935Z,52.30
2019-02-16T08:56:54.574Z,50.18
2019-02-16T08:59:52.263Z,47.84
2019-02-16T09:02:41.336Z,47.12
2019-02-16T09:05:22.374Z,47.64
2019-02-16T09:08:18.510Z,46.38
2019-02-16T09:11:17.995Z,45.82
2019-02-16T09:13:55.079Z,46.83
2019-02-16T09:16:45.427Z,46.58
2019-02-16T09:19:50.761Z,45.00
2019-02-16T09:22:30.395Z,45.80
2019-02-16T09:25:16.976Z,42.72
2019-02-16T09:28:15.794Z,37.44
2019-02-16T09:31:15.269Z,35.36
2019-02-16T09:34:08.492Z,35.98
2019-02-16T09:36:48.118Z,35.72
2019-02-16T09:39:37.365Z,36.04
2019-02-16T09:42:23.688Z,36.71
2019-02-16T09:45:19.930Z,36.02
2019-02-16T09:48:13.595Z,34.26
2019-02-16T09:50:50.929Z,37.41
2019-02-16T09:54:07.944Z,37.22
2019-02-16T09:56:50.279Z,36.55
2019-02-16T09:59:43.452Z,35.38
2019-02-16T10:02:28.168Z,34.97
2019-02-16T10:05:17.744Z,31.87
2019-02-16T10:08:14.116Z,33.77
2019-02-16T10:11:01.924Z,33.99
2019-02-16T10:13:54.129Z,34.16
2019-02-16T10:16:32.674Z,33.76
2019-02-16T10:19:10.103Z,31.38
2019-02-16T10:21:57.320Z,28.78
2019-02-16T10:24:52.138Z,26.16
2019-02-16T10:28:00.979Z,28.13
2019-02-16T10:30:42.925Z,28.01
2019-02-16T10:33:23.920Z,29.88
2019-02-16T10:36:34.051Z,28.39
2019-02-16T10:39:21.668Z,26.56
2019-02-16T10:42:13.263Z,26.37
2019-02-16T10:44:56.084Z,28.04
2019-02-16T10:47:49.564Z,27.10
2019-02-16T10:50:39.011Z,25.46
2019-02-16T10:53:44.535Z,25.73
2019-02-16T10:56:25.230Z,25.60
2019-02-16T10:59:11.191Z,26.41
2019-02-16T11:02:04.540Z,25.03
2019-02-16T11:04:54.076Z,25.24
2019-02-16T11:07:39.636Z,25.66
2019-02-16T11:10:30.170Z,24.96
2019-02-16T11:13:23.672Z,25.74
2019-02-16T11:16:22.993Z,26.01
2019-02-16T11:19:03.486Z,25.26
2019-02-16T11:21:52.935Z,26.37
2019-02-16T11:24:42.068Z,26.63
2019-02-16T11:27:40.327Z,28.45
2019-02-16T11:30:34.073Z,25.90
2019-02-16T11:33:13.512Z,26.83
2019-02-16T11:36:12.901Z,25.93
2019-02-16T11:39:06.068Z,26.13
2019-02-16T11:41:56.451Z,25.19
2019-02-16T11:44:51.329Z,25.74
2019-02-16T11:47:48.529Z,23.92
2019-02-16T11:50:41.755Z,24.32
2019-02-16T11:53:22.807Z,23.96
2019-02-16T11:56:07.408Z,23.99
2019-02-16T11:59:02.666Z,24.82
2019-02-16T12:01:43.393Z,24.65
2019-02-16T12:04:38.597Z,24.45
2019-02-16T12:07:30.611Z,24.28
2019-02-16T12:10:36.071Z,24.53
2019-02-16T12:13:32.472Z,24.15
2019-02-16T12:16:28.753Z,24.12
2019-02-16T12:19:17.935Z,22.96
2019-02-16T12:22:06.965Z,24.40
2019-02-16T12:25:04.778Z,24.42
2019-02-16T12:27:57.012Z,25.00
2019-02-16T12:30:44.431Z,24.39
2019-02-16T12:33:34.761Z,23.70
2019-02-16T12:36:24.579Z,23.43
2019-02-16T12:39:16.267Z,24.02
2019-02-16T12:42:15.243Z,23.14
2019-02-16T12:44:56.175Z,24.40
2019-02-16T12:47:50.061Z,25.07
2019-02-16T12:50:43.155Z,24.57
2019-02-16T12:53:32.623Z,23.66
2019-02-16T12:56:21.807Z,23.66
2019-02-16T12:59:05.881Z,24.42
2019-02-16T13:01:43.653Z,23.36
2019-02-16T13:04:31.603Z,23.87
2019-02-16T13:07:13.195Z,23.25
2019-02-16T13:09:50.677Z,23.30
2019-02-16T13:12:28.107Z,23.46
2019-02-16T13:15:19.908Z,24.33
2019-02-16T13:18:09.057Z,23.23
2019-02-16T13:21:15.025Z,23.39
2019-02-16T13:24:12.200Z,23.19
2019-02-16T13:27:05.371Z,24.12
2019-02-16T13:29:46.109Z,23.33
2019-02-16T13:32:47.136Z,23.91
2019-02-16T13:35:30.665Z,24.13
2019-02-16T13:38:19.730Z,23.54
2019-02-16T13:41:15.676Z,23.82
2019-02-16T13:44:06.054Z,24.18
2019-02-16T13:46:50.720Z,23.96
2019-02-16T13:49:30.379Z,23.80
2019-02-16T13:52:38.789Z,23.66
2019-02-16T13:55:33.052Z,23.20
2019-02-16T13:58:19.471Z,23.75
2019-02-16T14:01:02.529Z,23.90
2019-02-16T14:03:48.988Z,24.52
2019-02-16T14:06:57.760Z,23.84
2019-02-16T14:09:51.075Z,23.60
2019-02-16T14:12:30.189Z,23.97
2019-02-16T14:15:08.825Z,24.03
2019-02-16T14:17:45.188Z,23.81
2019-02-16T14:20:16.671Z,23.54
2019-02-16T14:22:48.229Z,23.50
2019-02-16T14:25:31.974Z,25.09
2019-02-16T14:28:03.486Z,24.29
2019-02-16T14:30:34.968Z,23.75
2019-02-16T14:33:06.478Z,23.87
2019-02-16T14:35:38.000Z,23.58
2019-02-16T14:38:19.537Z,23.55
2019-02-16T14:40:50.805Z,24.02
2019-02-16T14:43:22.270Z,23.90
2019-02-16T14:45:55.539Z,23.02
2019-02-16T14:48:27.024Z,23.39
2019-02-16T14:50:58.512Z,23.58
2019-02-16T14:53:31.523Z,23.78
2019-02-16T14:56:05.408Z,23.81
2019-02-16T14:58:37.008Z,23.31
2019-02-16T15:01:08.427Z,23.64
2019-02-16T15:03:39.891Z,23.72
2019-02-16T15:06:11.865Z,24.06
2019-02-16T15:08:43.421Z,24.22
2019-02-16T15:11:14.890Z,23.99
2019-02-16T15:13:46.410Z,23.96
2019-02-16T15:16:17.831Z,24.14
2019-02-16T15:18:49.284Z,23.70
2019-02-16T15:21:20.743Z,23.80
2019-02-16T15:23:52.228Z,23.76
2019-02-16T15:26:28.584Z,24.07
2019-02-16T15:28:56.888Z,24.25
2019-02-16T15:31:28.329Z,23.85
2019-02-16T15:33:59.826Z,23.57
2019-02-16T15:36:31.286Z,24.35
2019-02-16T15:39:02.736Z,24.21
2019-02-16T15:41:35.771Z,24.04
2019-02-16T15:44:07.319Z,24.31
2019-02-16T15:46:39.387Z,24.24
2019-02-16T15:49:10.887Z,24.48
2019-02-16T15:51:42.322Z,24.54
2019-02-16T15:54:13.852Z,24.21
2019-02-16T15:56:45.446Z,24.46
2019-02-16T15:59:16.969Z,24.97
2019-02-16T16:01:48.728Z,24.66
2019-02-16T16:04:21.521Z,24.49
2019-02-16T16:06:53.158Z,24.50
2019-02-16T16:09:36.804Z,24.52
2019-02-16T16:12:39.405Z,25.20
2019-02-16T16:15:41.770Z,25.46
2019-02-16T16:18:30.614Z,25.98
2019-02-16T16:21:12.723Z,27.68
2019-02-16T16:24:12.245Z,27.74
2019-02-16T16:27:10.716Z,28.30
2019-02-16T16:30:16.488Z,29.02
2019-02-16T16:33:05.935Z,30.60
2019-02-16T16:36:14.852Z,31.15
2019-02-16T16:39:08.059Z,32.48
2019-02-16T16:42:00.896Z,33.59
2019-02-16T16:44:57.487Z,33.98
2019-02-16T16:47:46.093Z,35.19
2019-02-16T16:50:42.265Z,36.79
2019-02-16T16:53:31.733Z,37.52
2019-02-16T16:56:28.593Z,37.71
2019-02-16T16:59:07.327Z,38.09
2019-02-16T17:01:52.205Z,38.11
2019-02-16T17:04:29.376Z,38.88
2019-02-16T17:07:20.092Z,37.96
2019-02-16T17:10:13.130Z,39.60
2019-02-16T17:12:56.574Z,40.81
2019-02-16T17:15:40.467Z,41.17
2019-02-16T17:18:30.840Z,41.94
2019-02-16T17:21:26.981Z,42.49
2019-02-16T17:24:06.380Z,43.51
2019-02-16T17:26:52.895Z,44.58
2019-02-16T17:29:42.010Z,45.34
2019-02-16T17:32:35.440Z,45.69
2019-02-16T17:35:16.559Z,46.10
2019-02-16T17:38:12.741Z,46.74
2019-02-16T17:41:02.100Z,47.57
2019-02-16T17:43:41.908Z,48.58
2019-02-16T17:46:32.237Z,49.17
2019-02-16T17:49:21.791Z,49.51
2019-02-16T17:52:19.446Z,49.71
2019-02-16T17:55:08.541Z,50.18
2019-02-16T17:58:07.194Z,50.33
2019-02-16T18:01:03.417Z,50.15
2019-02-16T18:03:50.889Z,50.13
2019-02-16T18:06:36.522Z,50.52
2019-02-16T18:09:26.125Z,50.20
2019-02-16T18:12:06.976Z,50.48
2019-02-16T18:15:09.258Z,50.97
2019-02-16T18:17:57.597Z,51.69
2019-02-16T18:20:36.121Z,52.38
2019-02-16T18:23:20.213Z,53.06
2019-02-16T18:26:10.526Z,52.59
2019-02-16T18:29:10.022Z,53.37
2019-02-16T18:32:01.053Z,54.06
2019-02-16T18:35:03.036Z,53.63
2019-02-16T18:37:52.208Z,53.56
2019-02-16T18:40:38.937Z,55.47
2019-02-16T18:43:22.327Z,54.96
2019-02-16T18:46:02.449Z,55.82
2019-02-16T18:48:51.709Z,55.17
2019-02-16T18:51:48.170Z,55.41
2019-02-16T18:54:34.950Z,54.91
2019-02-16T18:57:28.329Z,55.26
2019-02-16T19:00:07.933Z,55.85
2019-02-16T19:02:46.504Z,55.69
2019-02-16T19:05:46.148Z,56.28
2019-02-16T19:08:45.243Z,56.27
2019-02-16T19:11:38.344Z,56.72
2019-02-16T19:14:25.115Z,56.43
2019-02-16T19:17:07.625Z,56.12
2019-02-16T19:20:04.376Z,55.74
2019-02-16T19:22:53.826Z,55.82
2019-02-16T19:25:38.899Z,56.43
2019-02-16T19:28:27.901Z,57.35
2019-02-16T19:31:10.063Z,57.65
2019-02-16T19:33:59.243Z,58.30
2019-02-16T19:36:45.233Z,58.59
2019-02-16T19:39:22.177Z,58.55
2019-02-16T19:42:30.936Z,58.45
2019-02-16T19:45:39.336Z,58.72
2019-02-16T19:48:44.857Z,58.91
2019-02-16T19:51:41.265Z,58.59
2019-02-16T19:54:40.808Z,58.75
2019-02-16T19:57:29.994Z,58.55
2019-02-16T20:00:19.281Z,59.65
2019-02-16T20:03:18.928Z,59.76
2019-02-16T20:06:18.103Z,59.76
2019-02-16T20:09:01.344Z,59.90
2019-02-16T20:11:52.035Z,59.61
2019-02-16T20:15:00.702Z,59.90
2019-02-16T20:17:48.815Z,60.25
2019-02-16T20:20:32.687Z,60.32
2019-02-16T20:23:21.933Z,60.17
2019-02-16T20:26:14.414Z,60.38
2019-02-16T20:29:07.771Z,60.61
2019-02-16T20:31:46.273Z,60.82
2019-02-16T20:34:39.426Z,61.17
2019-02-16T20:37:20.173Z,60.72
2019-02-16T20:40:13.066Z,60.81
2019-02-16T20:43:00.390Z,61.12
2019-02-16T20:45:43.891Z,61.17
2019-02-16T20:48:33.053Z,61.45
2019-02-16T20:51:20.701Z,62.14
2019-02-16T20:54:07.331Z,62.97
2019-02-16T20:56:53.808Z,62.75
2019-02-16T20:59:50.469Z,61.62
2019-02-16T21:02:58.899Z,61.49
2019-02-16T21:05:48.028Z,61.67
2019-02-16T21:08:41.103Z,61.61
2019-02-16T21:11:34.217Z,62.23
2019-02-16T21:14:24.582Z,62.71
2019-02-16T21:17:03.568Z,62.81
2019-02-16T21:19:52.869Z,63.16
2019-02-16T21:22:43.767Z,63.58
2019-02-16T21:25:40.524Z,63.95
2019-02-16T21:28:26.341Z,64.00
2019-02-16T21:31:12.385Z,64.37
2019-02-16T21:33:51.953Z,64.41
2019-02-16T21:36:45.607Z,64.54
2019-02-16T21:39:35.969Z,64.43
2019-02-16T21:42:35.673Z,64.22
2019-02-16T21:45:16.467Z,64.47
2019-02-16T21:48:04.267Z,64.11
2019-02-16T21:50:50.407Z,63.89
2019-02-16T21:53:46.875Z,63.91
2019-02-16T21:56:26.620Z,63.90
2019-02-16T21:59:19.271Z,64.32
2019-02-16T22:01:57.525Z,64.55
2019-02-16T22:04:50.849Z,64.38
2019-02-16T22:07:51.977Z,63.80
2019-02-16T22:10:51.119Z,63.45
2019-02-16T22:13:22.627Z,63.77
2019-02-16T22:15:56.144Z,64.09
2019-02-16T22:18:27.570Z,63.76
2019-02-16T22:20:59.068Z,63.54
2019-02-16T22:23:32.120Z,63.33
2019-02-16T22:26:03.571Z,63.03
2019-02-16T22:28:35.037Z,63.28
2019-02-16T22:31:06.538Z,62.58
2019-02-16T22:33:37.978Z,62.15
2019-02-16T22:36:11.738Z,62.54
2019-02-16T22:38:43.938Z,62.37
2019-02-16T22:41:15.593Z,62.95
2019-02-16T22:43:47.031Z,63.09
2019-02-16T22:46:18.417Z,63.22
2019-02-16T22:48:49.881Z,62.00
2019-02-16T22:51:21.342Z,62.94
2019-02-16T22:53:53.836Z,62.60
2019-02-16T22:56:26.341Z,62.94
2019-02-16T22:58:57.789Z,62.71
2019-02-16T23:01:30.116Z,63.32
2019-02-16T23:04:01.724Z,62.81
2019-02-16T23:06:33.201Z,62.92
2019-02-16T23:09:13.011Z,63.01
2019-02-16T23:11:46.090Z,62.66
2019-02-16T23:14:17.706Z,63.08
2019-02-16T23:16:49.127Z,63.35
2019-02-16T23:19:20.563Z,63.00
2019-02-16T23:21:52.039Z,63.28
2019-02-16T23:24:23.490Z,63.15
2019-02-16T23:26:54.947Z,63.11
2019-02-16T23:29:26.453Z,62.96
2019-02-16T23:31:57.858Z,63.70
2019-02-16T23:34:29.340Z,63.60
2019-02-16T23:37:00.757Z,63.63
2019-02-16T23:39:32.207Z,64.15
2019-02-16T23:42:03.729Z,63.43
2019-02-16T23:44:35.141Z,63.04
2019-02-16T23:47:06.597Z,63.92
2019-02-16T23:49:38.005Z,63.25
2019-02-16T23:52:09.487Z,62.87
2019-02-16T23:54:40.891Z,63.22
2019-02-16T23:57:12.359Z,63.58
2019-02-16T23:59:43.977Z,63.41
